sensor_id;sensor_type;location;lat;lon;timestamp;P1;durP1;ratioP1;P2;durP2;ratioP2
23747;SDS011;12054;53.662;10.126;2023-02-12T00:02:25;26.20;;;10.48;;
23747;SDS011;12054;53.662;10.126;2023-02-12T00:04:51;25.02;;;10.52;;
23747;SDS011;12054;53.662;10.126;2023-02-12T00:07:16;25.83;;;9.63;;
23747;SDS011;12054;53.662;10.126;2023-02-12T00:09:42;26.85;;;9.75;;
23747;SDS011;12054;53.662;10.126;2023-02-12T00:12:08;22.65;;;8.68;;
23747;SDS011;12054;53.662;10.126;2023-02-12T00:14:35;29.48;;;8.07;;
23747;SDS011;12054;53.662;10.126;2023-02-12T00:17:01;23.65;;;9.15;;
23747;SDS011;12054;53.662;10.126;2023-02-12T00:19:28;20.23;;;7.97;;
23747;SDS011;12054;53.662;10.126;2023-02-12T00:21:54;19.65;;;7.18;;
23747;SDS011;12054;53.662;10.126;2023-02-12T00:24:19;22.40;;;8.43;;
23747;SDS011;12054;53.662;10.126;2023-02-12T00:26:45;19.48;;;7.22;;
23747;SDS011;12054;53.662;10.126;2023-02-12T00:29:12;18.27;;;7.35;;
23747;SDS011;12054;53.662;10.126;2023-02-12T00:31:38;16.80;;;6.80;;
23747;SDS011;12054;53.662;10.126;2023-02-12T00:34:03;15.45;;;6.93;;
23747;SDS011;12054;53.662;10.126;2023-02-12T00:36:30;18.67;;;6.55;;
23747;SDS011;12054;53.662;10.126;2023-02-12T00:38:58;13.52;;;6.63;;
23747;SDS011;12054;53.662;10.126;2023-02-12T00:41:24;21.85;;;7.05;;
23747;SDS011;12054;53.662;10.126;2023-02-12T00:43:50;16.50;;;6.72;;
23747;SDS011;12054;53.662;10.126;2023-02-12T00:46:16;22.38;;;8.60;;
23747;SDS011;12054;53.662;10.126;2023-02-12T00:48:42;19.25;;;7.43;;
23747;SDS011;12054;53.662;10.126;2023-02-12T00:51:09;27.65;;;8.38;;
23747;SDS011;12054;53.662;10.126;2023-02-12T00:53:35;21.77;;;8.35;;
23747;SDS011;12054;53.662;10.126;2023-02-12T00:56:01;21.10;;;7.75;;
23747;SDS011;12054;53.662;10.126;2023-02-12T00:58:26;20.38;;;8.52;;
23747;SDS011;12054;53.662;10.126;2023-02-12T01:00:52;22.83;;;8.23;;
23747;SDS011;12054;53.662;10.126;2023-02-12T01:03:18;21.60;;;7.70;;
23747;SDS011;12054;53.662;10.126;2023-02-12T01:05:44;19.13;;;7.88;;
23747;SDS011;12054;53.662;10.126;2023-02-12T01:08:13;22.17;;;8.00;;
23747;SDS011;12054;53.662;10.126;2023-02-12T01:10:40;17.60;;;8.13;;
23747;SDS011;12054;53.662;10.126;2023-02-12T01:13:08;14.52;;;5.97;;
23747;SDS011;12054;53.662;10.126;2023-02-12T01:15:38;13.70;;;5.13;;
23747;SDS011;12054;53.662;10.126;2023-02-12T01:18:05;11.20;;;4.55;;
23747;SDS011;12054;53.662;10.126;2023-02-12T01:20:31;10.70;;;5.10;;
23747;SDS011;12054;53.662;10.126;2023-02-12T01:22:57;10.63;;;4.40;;
23747;SDS011;12054;53.662;10.126;2023-02-12T01:25:23;10.88;;;4.28;;
23747;SDS011;12054;53.662;10.126;2023-02-12T01:27:51;7.05;;;3.47;;
23747;SDS011;12054;53.662;10.126;2023-02-12T01:30:17;8.75;;;3.40;;
23747;SDS011;12054;53.662;10.126;2023-02-12T01:32:48;7.65;;;3.53;;
23747;SDS011;12054;53.662;10.126;2023-02-12T01:35:13;6.72;;;3.08;;
23747;SDS011;12054;53.662;10.126;2023-02-12T01:37:39;9.02;;;3.80;;
23747;SDS011;12054;53.662;10.126;2023-02-12T01:40:05;12.32;;;3.65;;
23747;SDS011;12054;53.662;10.126;2023-02-12T01:42:32;9.45;;;3.53;;
23747;SDS011;12054;53.662;10.126;2023-02-12T01:47:41;10.75;;;3.63;;
23747;SDS011;12054;53.662;10.126;2023-02-12T01:50:12;10.63;;;4.05;;
23747;SDS011;12054;53.662;10.126;2023-02-12T01:52:42;14.02;;;3.95;;
23747;SDS011;12054;53.662;10.126;2023-02-12T01:55:10;11.85;;;4.85;;
23747;SDS011;12054;53.662;10.126;2023-02-12T01:57:41;15.23;;;4.47;;
23747;SDS011;12054;53.662;10.126;2023-02-12T02:00:12;10.98;;;4.20;;
23747;SDS011;12054;53.662;10.126;2023-02-12T02:02:41;15.52;;;4.75;;
23747;SDS011;12054;53.662;10.126;2023-02-12T02:05:09;10.80;;;4.70;;
23747;SDS011;12054;53.662;10.126;2023-02-12T02:07:39;11.60;;;4.35;;
23747;SDS011;12054;53.662;10.126;2023-02-12T02:10:07;18.15;;;5.78;;
23747;SDS011;12054;53.662;10.126;2023-02-12T02:12:33;17.80;;;5.68;;
23747;SDS011;12054;53.662;10.126;2023-02-12T02:15:19;14.52;;;6.15;;
23747;SDS011;12054;53.662;10.126;2023-02-12T02:25:46;14.82;;;7.35;;
23747;SDS011;12054;53.662;10.126;2023-02-12T02:28:44;20.90;;;7.93;;
23747;SDS011;12054;53.662;10.126;2023-02-12T02:34:09;16.92;;;7.15;;
23747;SDS011;12054;53.662;10.126;2023-02-12T02:36:45;21.10;;;7.82;;
23747;SDS011;12054;53.662;10.126;2023-02-12T02:39:40;21.80;;;8.68;;
23747;SDS011;12054;53.662;10.126;2023-02-12T02:47:47;27.00;;;9.75;;
23747;SDS011;12054;53.662;10.126;2023-02-12T02:50:29;25.73;;;10.32;;
23747;SDS011;12054;53.662;10.126;2023-02-12T02:53:03;25.23;;;10.05;;
23747;SDS011;12054;53.662;10.126;2023-02-12T02:55:36;26.00;;;10.38;;
23747;SDS011;12054;53.662;10.126;2023-02-12T02:58:40;24.33;;;9.80;;
23747;SDS011;12054;53.662;10.126;2023-02-12T03:01:11;27.92;;;11.23;;
23747;SDS011;12054;53.662;10.126;2023-02-12T03:03:51;25.58;;;11.23;;
23747;SDS011;12054;53.662;10.126;2023-02-12T03:06:26;26.38;;;10.13;;
23747;SDS011;12054;53.662;10.126;2023-02-12T03:09:17;23.08;;;10.20;;
23747;SDS011;12054;53.662;10.126;2023-02-12T03:11:49;23.98;;;10.57;;
23747;SDS011;12054;53.662;10.126;2023-02-12T03:14:28;25.70;;;9.35;;
23747;SDS011;12054;53.662;10.126;2023-02-12T03:16:58;22.38;;;9.15;;
23747;SDS011;12054;53.662;10.126;2023-02-12T03:19:29;23.80;;;8.90;;
23747;SDS011;12054;53.662;10.126;2023-02-12T03:22:01;20.70;;;8.18;;
23747;SDS011;12054;53.662;10.126;2023-02-12T03:27:20;20.80;;;8.18;;
23747;SDS011;12054;53.662;10.126;2023-02-12T03:29:53;20.67;;;7.53;;
23747;SDS011;12054;53.662;10.126;2023-02-12T03:34:54;14.75;;;7.00;;
23747;SDS011;12054;53.662;10.126;2023-02-12T03:37:38;18.88;;;7.18;;
23747;SDS011;12054;53.662;10.126;2023-02-12T03:40:20;20.95;;;7.93;;
23747;SDS011;12054;53.662;10.126;2023-02-12T03:48:40;19.20;;;7.43;;
23747;SDS011;12054;53.662;10.126;2023-02-12T03:51:21;18.02;;;6.95;;
23747;SDS011;12054;53.662;10.126;2023-02-12T03:53:52;15.30;;;6.57;;
23747;SDS011;12054;53.662;10.126;2023-02-12T03:56:41;16.40;;;7.28;;
23747;SDS011;12054;53.662;10.126;2023-02-12T03:59:05;14.13;;;5.72;;
23747;SDS011;12054;53.662;10.126;2023-02-12T04:01:31;14.25;;;5.75;;
23747;SDS011;12054;53.662;10.126;2023-02-12T04:03:59;11.93;;;4.60;;
23747;SDS011;12054;53.662;10.126;2023-02-12T04:06:28;10.63;;;5.05;;
23747;SDS011;12054;53.662;10.126;2023-02-12T04:08:54;8.95;;;4.45;;
23747;SDS011;12054;53.662;10.126;2023-02-12T04:11:24;9.98;;;4.47;;
23747;SDS011;12054;53.662;10.126;2023-02-12T04:14:17;10.13;;;4.25;;
23747;SDS011;12054;53.662;10.126;2023-02-12T04:17:19;13.68;;;4.90;;
23747;SDS011;12054;53.662;10.126;2023-02-12T04:25:55;14.65;;;4.95;;
23747;SDS011;12054;53.662;10.126;2023-02-12T04:28:58;15.65;;;5.05;;
23747;SDS011;12054;53.662;10.126;2023-02-12T04:34:43;20.45;;;5.72;;
23747;SDS011;12054;53.662;10.126;2023-02-12T04:37:34;19.40;;;5.97;;
23747;SDS011;12054;53.662;10.126;2023-02-12T04:40:27;22.75;;;5.95;;
23747;SDS011;12054;53.662;10.126;2023-02-12T04:42:52;25.73;;;5.82;;
23747;SDS011;12054;53.662;10.126;2023-02-12T04:45:26;18.25;;;5.57;;
23747;SDS011;12054;53.662;10.126;2023-02-12T04:47:56;17.77;;;6.63;;
23747;SDS011;12054;53.662;10.126;2023-02-12T04:50:22;17.50;;;5.57;;
23747;SDS011;12054;53.662;10.126;2023-02-12T04:52:48;19.55;;;6.15;;
23747;SDS011;12054;53.662;10.126;2023-02-12T04:55:14;24.05;;;6.30;;
23747;SDS011;12054;53.662;10.126;2023-02-12T04:57:40;28.38;;;6.72;;
23747;SDS011;12054;53.662;10.126;2023-02-12T05:00:06;39.58;;;6.88;;
23747;SDS011;12054;53.662;10.126;2023-02-12T05:02:33;47.60;;;7.38;;
23747;SDS011;12054;53.662;10.126;2023-02-12T05:04:58;41.83;;;8.07;;
23747;SDS011;12054;53.662;10.126;2023-02-12T05:07:24;65.30;;;7.95;;
23747;SDS011;12054;53.662;10.126;2023-02-12T05:09:50;55.20;;;7.55;;
23747;SDS011;12054;53.662;10.126;2023-02-12T05:12:15;62.45;;;8.05;;
23747;SDS011;12054;53.662;10.126;2023-02-12T05:14:41;110.55;;;9.48;;
23747;SDS011;12054;53.662;10.126;2023-02-12T05:17:06;79.50;;;8.68;;
23747;SDS011;12054;53.662;10.126;2023-02-12T05:19:32;57.75;;;7.90;;
23747;SDS011;12054;53.662;10.126;2023-02-12T05:21:57;57.67;;;9.27;;
23747;SDS011;12054;53.662;10.126;2023-02-12T05:24:23;100.53;;;9.18;;
23747;SDS011;12054;53.662;10.126;2023-02-12T05:26:49;95.38;;;8.90;;
23747;SDS011;12054;53.662;10.126;2023-02-12T05:29:15;71.93;;;8.43;;
23747;SDS011;12054;53.662;10.126;2023-02-12T05:31:40;94.85;;;9.85;;
23747;SDS011;12054;53.662;10.126;2023-02-12T05:34:07;46.83;;;7.45;;
23747;SDS011;12054;53.662;10.126;2023-02-12T05:36:35;98.70;;;8.07;;
23747;SDS011;12054;53.662;10.126;2023-02-12T05:39:11;109.70;;;9.48;;
23747;SDS011;12054;53.662;10.126;2023-02-12T05:41:36;93.60;;;8.20;;
23747;SDS011;12054;53.662;10.126;2023-02-12T05:44:02;44.78;;;6.10;;
23747;SDS011;12054;53.662;10.126;2023-02-12T05:46:29;36.78;;;7.30;;
23747;SDS011;12054;53.662;10.126;2023-02-12T05:48:54;73.13;;;7.40;;
23747;SDS011;12054;53.662;10.126;2023-02-12T05:51:22;54.28;;;6.22;;
23747;SDS011;12054;53.662;10.126;2023-02-12T05:53:50;59.15;;;7.40;;
23747;SDS011;12054;53.662;10.126;2023-02-12T05:56:25;58.20;;;7.78;;
23747;SDS011;12054;53.662;10.126;2023-02-12T05:58:54;53.17;;;9.07;;
23747;SDS011;12054;53.662;10.126;2023-02-12T06:01:29;99.85;;;9.57;;
23747;SDS011;12054;53.662;10.126;2023-02-12T06:03:57;57.55;;;7.53;;
23747;SDS011;12054;53.662;10.126;2023-02-12T06:06:27;67.57;;;7.68;;
23747;SDS011;12054;53.662;10.126;2023-02-12T06:08:53;62.75;;;8.88;;
23747;SDS011;12054;53.662;10.126;2023-02-12T06:11:19;37.60;;;6.75;;
23747;SDS011;12054;53.662;10.126;2023-02-12T06:13:45;43.55;;;7.63;;
23747;SDS011;12054;53.662;10.126;2023-02-12T06:16:30;61.10;;;7.25;;
23747;SDS011;12054;53.662;10.126;2023-02-12T06:18:56;54.40;;;7.90;;
23747;SDS011;12054;53.662;10.126;2023-02-12T06:21:23;68.25;;;9.38;;
23747;SDS011;12054;53.662;10.126;2023-02-12T06:23:50;33.70;;;8.13;;
23747;SDS011;12054;53.662;10.126;2023-02-12T06:26:17;34.40;;;8.23;;
23747;SDS011;12054;53.662;10.126;2023-02-12T06:28:43;45.55;;;7.85;;
23747;SDS011;12054;53.662;10.126;2023-02-12T06:33:44;86.03;;;10.88;;
23747;SDS011;12054;53.662;10.126;2023-02-12T06:36:09;46.75;;;8.88;;
23747;SDS011;12054;53.662;10.126;2023-02-12T06:38:35;51.63;;;9.32;;
23747;SDS011;12054;53.662;10.126;2023-02-12T06:41:01;31.13;;;8.43;;
23747;SDS011;12054;53.662;10.126;2023-02-12T06:43:27;37.75;;;8.82;;
23747;SDS011;12054;53.662;10.126;2023-02-12T06:45:53;60.75;;;9.57;;
23747;SDS011;12054;53.662;10.126;2023-02-12T06:48:18;44.92;;;9.27;;
23747;SDS011;12054;53.662;10.126;2023-02-12T06:50:44;49.15;;;10.15;;
23747;SDS011;12054;53.662;10.126;2023-02-12T06:53:09;49.45;;;10.40;;
23747;SDS011;12054;53.662;10.126;2023-02-12T06:55:35;50.47;;;9.60;;
23747;SDS011;12054;53.662;10.126;2023-02-12T06:58:00;46.35;;;9.30;;
23747;SDS011;12054;53.662;10.126;2023-02-12T07:00:26;34.85;;;9.23;;
23747;SDS011;12054;53.662;10.126;2023-02-12T07:02:55;57.78;;;10.07;;
23747;SDS011;12054;53.662;10.126;2023-02-12T07:05:21;52.42;;;9.95;;
23747;SDS011;12054;53.662;10.126;2023-02-12T07:07:48;50.70;;;10.20;;
23747;SDS011;12054;53.662;10.126;2023-02-12T07:10:13;53.53;;;10.30;;
23747;SDS011;12054;53.662;10.126;2023-02-12T07:12:39;53.55;;;10.70;;
23747;SDS011;12054;53.662;10.126;2023-02-12T07:17:33;62.60;;;10.85;;
23747;SDS011;12054;53.662;10.126;2023-02-12T07:19:59;42.63;;;10.40;;
23747;SDS011;12054;53.662;10.126;2023-02-12T07:22:25;61.40;;;11.45;;
23747;SDS011;12054;53.662;10.126;2023-02-12T07:24:51;54.85;;;10.60;;
23747;SDS011;12054;53.662;10.126;2023-02-12T07:27:16;60.28;;;12.05;;
23747;SDS011;12054;53.662;10.126;2023-02-12T07:29:42;70.50;;;11.70;;
23747;SDS011;12054;53.662;10.126;2023-02-12T07:32:08;65.28;;;12.30;;
23747;SDS011;12054;53.662;10.126;2023-02-12T07:34:33;67.95;;;11.52;;
23747;SDS011;12054;53.662;10.126;2023-02-12T07:36:59;64.95;;;12.25;;
23747;SDS011;12054;53.662;10.126;2023-02-12T07:39:24;77.10;;;11.70;;
23747;SDS011;12054;53.662;10.126;2023-02-12T07:41:50;66.32;;;11.52;;
23747;SDS011;12054;53.662;10.126;2023-02-12T07:44:15;87.00;;;12.82;;
23747;SDS011;12054;53.662;10.126;2023-02-12T07:46:42;99.15;;;12.10;;
23747;SDS011;12054;53.662;10.126;2023-02-12T07:49:11;82.25;;;13.20;;
23747;SDS011;12054;53.662;10.126;2023-02-12T07:51:47;121.22;;;13.73;;
23747;SDS011;12054;53.662;10.126;2023-02-12T07:54:13;87.30;;;13.15;;
23747;SDS011;12054;53.662;10.126;2023-02-12T07:56:39;96.75;;;13.13;;
23747;SDS011;12054;53.662;10.126;2023-02-12T07:59:07;114.50;;;14.20;;
23747;SDS011;12054;53.662;10.126;2023-02-12T08:01:36;94.15;;;13.52;;
23747;SDS011;12054;53.662;10.126;2023-02-12T08:04:05;89.40;;;13.85;;
23747;SDS011;12054;53.662;10.126;2023-02-12T08:06:36;93.63;;;13.63;;
23747;SDS011;12054;53.662;10.126;2023-02-12T08:09:04;78.85;;;13.10;;
23747;SDS011;12054;53.662;10.126;2023-02-12T08:11:31;67.43;;;12.32;;
23747;SDS011;12054;53.662;10.126;2023-02-12T08:13:57;89.97;;;13.32;;
23747;SDS011;12054;53.662;10.126;2023-02-12T08:16:24;57.42;;;12.75;;
23747;SDS011;12054;53.662;10.126;2023-02-12T08:18:51;73.88;;;13.68;;
23747;SDS011;12054;53.662;10.126;2023-02-12T08:21:18;69.60;;;13.00;;
23747;SDS011;12054;53.662;10.126;2023-02-12T08:23:45;70.72;;;14.05;;
23747;SDS011;12054;53.662;10.126;2023-02-12T08:28:43;59.08;;;13.15;;
23747;SDS011;12054;53.662;10.126;2023-02-12T08:31:13;58.92;;;12.50;;
23747;SDS011;12054;53.662;10.126;2023-02-12T08:33:41;67.72;;;14.18;;
23747;SDS011;12054;53.662;10.126;2023-02-12T08:36:09;57.33;;;12.90;;
23747;SDS011;12054;53.662;10.126;2023-02-12T08:38:36;59.75;;;12.88;;
23747;SDS011;12054;53.662;10.126;2023-02-12T08:41:07;56.38;;;12.90;;
23747;SDS011;12054;53.662;10.126;2023-02-12T08:43:34;53.92;;;12.43;;
23747;SDS011;12054;53.662;10.126;2023-02-12T08:46:00;55.67;;;13.25;;
23747;SDS011;12054;53.662;10.126;2023-02-12T08:48:37;47.72;;;12.30;;
23747;SDS011;12054;53.662;10.126;2023-02-12T08:51:13;53.72;;;12.00;;
23747;SDS011;12054;53.662;10.126;2023-02-12T08:53:41;55.10;;;12.25;;
23747;SDS011;12054;53.662;10.126;2023-02-12T08:56:08;48.80;;;11.38;;
23747;SDS011;12054;53.662;10.126;2023-02-12T08:58:35;46.78;;;11.45;;
23747;SDS011;12054;53.662;10.126;2023-02-12T09:01:02;38.97;;;11.98;;
23747;SDS011;12054;53.662;10.126;2023-02-12T09:03:29;41.65;;;10.80;;
23747;SDS011;12054;53.662;10.126;2023-02-12T09:05:54;42.17;;;11.20;;
23747;SDS011;12054;53.662;10.126;2023-02-12T09:08:20;50.42;;;12.57;;
23747;SDS011;12054;53.662;10.126;2023-02-12T09:10:46;44.05;;;10.77;;
23747;SDS011;12054;53.662;10.126;2023-02-12T09:13:12;49.83;;;11.55;;
23747;SDS011;12054;53.662;10.126;2023-02-12T09:15:39;52.30;;;11.80;;
23747;SDS011;12054;53.662;10.126;2023-02-12T09:18:05;64.90;;;18.98;;
23747;SDS011;12054;53.662;10.126;2023-02-12T09:20:31;37.10;;;11.02;;
23747;SDS011;12054;53.662;10.126;2023-02-12T09:22:58;45.60;;;11.93;;
23747;SDS011;12054;53.662;10.126;2023-02-12T09:25:24;48.42;;;11.88;;
23747;SDS011;12054;53.662;10.126;2023-02-12T09:27:50;44.75;;;11.75;;
23747;SDS011;12054;53.662;10.126;2023-02-12T09:30:15;43.25;;;11.88;;
23747;SDS011;12054;53.662;10.126;2023-02-12T09:32:41;39.38;;;11.13;;
23747;SDS011;12054;53.662;10.126;2023-02-12T09:35:07;44.88;;;12.02;;
23747;SDS011;12054;53.662;10.126;2023-02-12T09:37:32;44.33;;;11.85;;
23747;SDS011;12054;53.662;10.126;2023-02-12T09:39:58;41.67;;;11.95;;
23747;SDS011;12054;53.662;10.126;2023-02-12T09:45:04;36.83;;;12.05;;
23747;SDS011;12054;53.662;10.126;2023-02-12T09:53:11;40.40;;;13.00;;
23747;SDS011;12054;53.662;10.126;2023-02-12T09:55:40;37.15;;;11.18;;
23747;SDS011;12054;53.662;10.126;2023-02-12T09:58:10;40.40;;;11.95;;
23747;SDS011;12054;53.662;10.126;2023-02-12T10:00:40;40.05;;;11.77;;
23747;SDS011;12054;53.662;10.126;2023-02-12T10:03:10;38.17;;;11.77;;
23747;SDS011;12054;53.662;10.126;2023-02-12T10:05:43;44.58;;;11.52;;
23747;SDS011;12054;53.662;10.126;2023-02-12T10:08:31;39.22;;;11.25;;
23747;SDS011;12054;53.662;10.126;2023-02-12T10:11:18;39.65;;;12.02;;
23747;SDS011;12054;53.662;10.126;2023-02-12T10:16:51;35.22;;;12.07;;
23747;SDS011;12054;53.662;10.126;2023-02-12T10:19:53;35.35;;;11.02;;
23747;SDS011;12054;53.662;10.126;2023-02-12T10:22:37;37.53;;;10.90;;
23747;SDS011;12054;53.662;10.126;2023-02-12T10:25:25;37.47;;;11.65;;
23747;SDS011;12054;53.662;10.126;2023-02-12T10:28:14;38.45;;;10.98;;
23747;SDS011;12054;53.662;10.126;2023-02-12T10:30:56;37.17;;;10.82;;
23747;SDS011;12054;53.662;10.126;2023-02-12T10:33:33;40.78;;;12.93;;
23747;SDS011;12054;53.662;10.126;2023-02-12T10:36:03;34.65;;;10.95;;
23747;SDS011;12054;53.662;10.126;2023-02-12T10:38:38;34.47;;;11.15;;
23747;SDS011;12054;53.662;10.126;2023-02-12T10:41:08;31.85;;;10.75;;
23747;SDS011;12054;53.662;10.126;2023-02-12T10:43:36;30.33;;;10.45;;
23747;SDS011;12054;53.662;10.126;2023-02-12T10:46:02;28.55;;;10.50;;
23747;SDS011;12054;53.662;10.126;2023-02-12T10:48:35;30.23;;;10.52;;
23747;SDS011;12054;53.662;10.126;2023-02-12T10:53:33;36.22;;;11.15;;
23747;SDS011;12054;53.662;10.126;2023-02-12T10:58:36;29.10;;;10.43;;
23747;SDS011;12054;53.662;10.126;2023-02-12T11:01:16;34.70;;;11.40;;
23747;SDS011;12054;53.662;10.126;2023-02-12T11:03:49;35.78;;;11.38;;
23747;SDS011;12054;53.662;10.126;2023-02-12T11:06:17;30.63;;;11.07;;
23747;SDS011;12054;53.662;10.126;2023-02-12T11:08:45;37.72;;;12.25;;
23747;SDS011;12054;53.662;10.126;2023-02-12T11:11:13;37.22;;;12.32;;
23747;SDS011;12054;53.662;10.126;2023-02-12T11:13:43;36.60;;;12.25;;
23747;SDS011;12054;53.662;10.126;2023-02-12T11:16:25;39.22;;;12.70;;
23747;SDS011;12054;53.662;10.126;2023-02-12T11:19:06;46.95;;;12.70;;
23747;SDS011;12054;53.662;10.126;2023-02-12T11:21:42;41.92;;;11.50;;
23747;SDS011;12054;53.662;10.126;2023-02-12T11:29:41;49.80;;;13.20;;
23747;SDS011;12054;53.662;10.126;2023-02-12T11:32:14;38.00;;;13.55;;
23747;SDS011;12054;53.662;10.126;2023-02-12T11:34:41;41.05;;;12.65;;
23747;SDS011;12054;53.662;10.126;2023-02-12T11:37:17;42.25;;;12.63;;
23747;SDS011;12054;53.662;10.126;2023-02-12T11:39:47;38.95;;;12.43;;
23747;SDS011;12054;53.662;10.126;2023-02-12T11:42:17;36.45;;;11.38;;
23747;SDS011;12054;53.662;10.126;2023-02-12T11:44:48;27.80;;;11.75;;
23747;SDS011;12054;53.662;10.126;2023-02-12T11:47:20;33.72;;;12.13;;
23747;SDS011;12054;53.662;10.126;2023-02-12T11:49:50;33.53;;;11.65;;
23747;SDS011;12054;53.662;10.126;2023-02-12T11:52:20;33.30;;;11.35;;
23747;SDS011;12054;53.662;10.126;2023-02-12T11:54:51;29.10;;;11.48;;
23747;SDS011;12054;53.662;10.126;2023-02-12T12:00:11;28.48;;;10.10;;
23747;SDS011;12054;53.662;10.126;2023-02-12T12:02:57;27.65;;;10.10;;
23747;SDS011;12054;53.662;10.126;2023-02-12T12:05:39;33.58;;;12.32;;
23747;SDS011;12054;53.662;10.126;2023-02-12T12:08:18;36.13;;;12.30;;
23747;SDS011;12054;53.662;10.126;2023-02-12T12:11:05;26.58;;;10.85;;
23747;SDS011;12054;53.662;10.126;2023-02-12T12:13:38;25.17;;;9.75;;
23747;SDS011;12054;53.662;10.126;2023-02-12T12:16:12;26.15;;;10.57;;
23747;SDS011;12054;53.662;10.126;2023-02-12T12:19:08;24.65;;;10.95;;
23747;SDS011;12054;53.662;10.126;2023-02-12T12:22:03;20.92;;;8.85;;
23747;SDS011;12054;53.662;10.126;2023-02-12T12:24:47;19.92;;;9.48;;
23747;SDS011;12054;53.662;10.126;2023-02-12T12:30:43;21.02;;;8.90;;
23747;SDS011;12054;53.662;10.126;2023-02-12T12:33:32;19.88;;;8.60;;
23747;SDS011;12054;53.662;10.126;2023-02-12T12:41:34;16.13;;;7.55;;
23747;SDS011;12054;53.662;10.126;2023-02-12T12:47:16;17.35;;;7.63;;
23747;SDS011;12054;53.662;10.126;2023-02-12T12:57:50;15.07;;;6.60;;
23747;SDS011;12054;53.662;10.126;2023-02-12T13:00:34;17.35;;;6.63;;
23747;SDS011;12054;53.662;10.126;2023-02-12T13:11:46;10.77;;;4.80;;
23747;SDS011;12054;53.662;10.126;2023-02-12T13:14:40;9.75;;;4.95;;
23747;SDS011;12054;53.662;10.126;2023-02-12T13:17:27;8.98;;;4.50;;
23747;SDS011;12054;53.662;10.126;2023-02-12T13:20:26;9.60;;;3.95;;
23747;SDS011;12054;53.662;10.126;2023-02-12T13:23:11;11.02;;;4.00;;
23747;SDS011;12054;53.662;10.126;2023-02-12T13:28:21;9.25;;;4.10;;
23747;SDS011;12054;53.662;10.126;2023-02-12T13:30:55;10.75;;;4.00;;
23747;SDS011;12054;53.662;10.126;2023-02-12T13:33:24;7.45;;;3.80;;
23747;SDS011;12054;53.662;10.126;2023-02-12T13:36:00;8.25;;;3.65;;
23747;SDS011;12054;53.662;10.126;2023-02-12T13:38:34;7.75;;;4.32;;
23747;SDS011;12054;53.662;10.126;2023-02-12T13:41:05;7.22;;;3.95;;
23747;SDS011;12054;53.662;10.126;2023-02-12T13:43:37;9.05;;;4.75;;
23747;SDS011;12054;53.662;10.126;2023-02-12T13:46:11;7.75;;;4.10;;
23747;SDS011;12054;53.662;10.126;2023-02-12T13:48:53;7.68;;;4.38;;
23747;SDS011;12054;53.662;10.126;2023-02-12T13:51:32;8.57;;;4.00;;
23747;SDS011;12054;53.662;10.126;2023-02-12T13:56:46;10.73;;;5.63;;
23747;SDS011;12054;53.662;10.126;2023-02-12T14:01:55;14.98;;;7.95;;
23747;SDS011;12054;53.662;10.126;2023-02-12T14:07:14;13.98;;;7.00;;
23747;SDS011;12054;53.662;10.126;2023-02-12T14:09:44;11.35;;;6.38;;
23747;SDS011;12054;53.662;10.126;2023-02-12T14:12:56;12.82;;;5.45;;
23747;SDS011;12054;53.662;10.126;2023-02-12T14:15:07;10.05;;;5.60;;
23747;SDS011;12054;53.662;10.126;2023-02-12T14:17:52;9.88;;;4.78;;
23747;SDS011;12054;53.662;10.126;2023-02-12T14:20:30;11.57;;;5.75;;
23747;SDS011;12054;53.662;10.126;2023-02-12T14:26:09;10.82;;;5.88;;
23747;SDS011;12054;53.662;10.126;2023-02-12T14:33:42;12.70;;;6.55;;
23747;SDS011;12054;53.662;10.126;2023-02-12T14:36:17;10.55;;;5.95;;
23747;SDS011;12054;53.662;10.126;2023-02-12T14:41:45;13.90;;;7.57;;
23747;SDS011;12054;53.662;10.126;2023-02-12T14:44:58;12.55;;;7.70;;
23747;SDS011;12054;53.662;10.126;2023-02-12T14:47:03;12.63;;;7.88;;
23747;SDS011;12054;53.662;10.126;2023-02-12T14:49:38;11.85;;;7.38;;
23747;SDS011;12054;53.662;10.126;2023-02-12T14:54:40;12.77;;;7.40;;
23747;SDS011;12054;53.662;10.126;2023-02-12T14:57:19;12.20;;;7.22;;
23747;SDS011;12054;53.662;10.126;2023-02-12T15:02:43;9.57;;;5.97;;
23747;SDS011;12054;53.662;10.126;2023-02-12T15:05:16;10.18;;;6.53;;
23747;SDS011;12054;53.662;10.126;2023-02-12T15:07:49;11.07;;;5.93;;
23747;SDS011;12054;53.662;10.126;2023-02-12T15:10:21;9.95;;;5.35;;
23747;SDS011;12054;53.662;10.126;2023-02-12T15:12:51;9.30;;;6.45;;
23747;SDS011;12054;53.662;10.126;2023-02-12T15:15:47;10.60;;;7.40;;
23747;SDS011;12054;53.662;10.126;2023-02-12T15:18:28;11.57;;;7.38;;
23747;SDS011;12054;53.662;10.126;2023-02-12T15:21:04;9.18;;;6.45;;
23747;SDS011;12054;53.662;10.126;2023-02-12T15:23:41;11.63;;;5.55;;
23747;SDS011;12054;53.662;10.126;2023-02-12T15:26:15;8.15;;;5.43;;
23747;SDS011;12054;53.662;10.126;2023-02-12T15:28:45;7.90;;;4.60;;
23747;SDS011;12054;53.662;10.126;2023-02-12T15:31:14;7.82;;;5.25;;
23747;SDS011;12054;53.662;10.126;2023-02-12T15:33:44;5.88;;;4.32;;
23747;SDS011;12054;53.662;10.126;2023-02-12T15:36:18;5.72;;;4.43;;
23747;SDS011;12054;53.662;10.126;2023-02-12T15:38:52;6.72;;;4.80;;
23747;SDS011;12054;53.662;10.126;2023-02-12T15:44:16;8.60;;;4.95;;
23747;SDS011;12054;53.662;10.126;2023-02-12T15:47:19;12.20;;;7.43;;
23747;SDS011;12054;53.662;10.126;2023-02-12T15:49:39;8.15;;;5.68;;
23747;SDS011;12054;53.662;10.126;2023-02-12T15:52:19;5.78;;;4.43;;
23747;SDS011;12054;53.662;10.126;2023-02-12T15:54:49;6.85;;;4.47;;
23747;SDS011;12054;53.662;10.126;2023-02-12T15:57:20;8.68;;;5.38;;
23747;SDS011;12054;53.662;10.126;2023-02-12T15:59:48;7.20;;;4.55;;
23747;SDS011;12054;53.662;10.126;2023-02-12T16:02:25;5.63;;;4.15;;
23747;SDS011;12054;53.662;10.126;2023-02-12T16:04:53;7.82;;;5.05;;
23747;SDS011;12054;53.662;10.126;2023-02-12T16:07:20;6.63;;;4.78;;
23747;SDS011;12054;53.662;10.126;2023-02-12T16:09:47;6.32;;;4.80;;
23747;SDS011;12054;53.662;10.126;2023-02-12T16:12:14;7.82;;;4.40;;
23747;SDS011;12054;53.662;10.126;2023-02-12T16:14:47;7.05;;;4.38;;
23747;SDS011;12054;53.662;10.126;2023-02-12T16:17:25;7.90;;;5.00;;
23747;SDS011;12054;53.662;10.126;2023-02-12T16:22:44;7.72;;;4.60;;
23747;SDS011;12054;53.662;10.126;2023-02-12T16:32:50;5.90;;;4.07;;
23747;SDS011;12054;53.662;10.126;2023-02-12T16:37:46;6.03;;;4.35;;
23747;SDS011;12054;53.662;10.126;2023-02-12T16:50:33;11.23;;;5.85;;
23747;SDS011;12054;53.662;10.126;2023-02-12T16:53:04;9.90;;;6.25;;
23747;SDS011;12054;53.662;10.126;2023-02-12T16:55:32;10.23;;;6.63;;
23747;SDS011;12054;53.662;10.126;2023-02-12T16:57:59;12.63;;;7.05;;
23747;SDS011;12054;53.662;10.126;2023-02-12T17:00:25;12.85;;;7.03;;
23747;SDS011;12054;53.662;10.126;2023-02-12T17:02:53;13.23;;;7.35;;
23747;SDS011;12054;53.662;10.126;2023-02-12T17:05:19;12.27;;;7.85;;
23747;SDS011;12054;53.662;10.126;2023-02-12T17:07:47;11.98;;;6.80;;
23747;SDS011;12054;53.662;10.126;2023-02-12T17:10:13;12.43;;;7.38;;
23747;SDS011;12054;53.662;10.126;2023-02-12T17:12:46;13.98;;;7.82;;
23747;SDS011;12054;53.662;10.126;2023-02-12T17:15:27;13.40;;;7.95;;
23747;SDS011;12054;53.662;10.126;2023-02-12T17:17:57;14.00;;;7.63;;